sensor_id;sensor_type;location;lat;lon;timestamp;pressure;altitude;pressure_sealevel;temperature;humidity
10840;BME280;5473;42.706;23.328;2022-09-12T00:01:08;-14565.91;;;-142.93;100.00
10840;BME280;5473;42.706;23.328;2022-09-12T00:03:36;-14565.91;;;-142.93;100.00
10840;BME280;5473;42.706;23.328;2022-09-12T00:06:07;-14565.91;;;-142.93;100.00
10840;BME280;5473;42.706;23.328;2022-09-12T00:08:36;-14565.91;;;-142.93;100.00
10840;BME280;5473;42.706;23.328;2022-09-12T00:11:08;-14565.91;;;-142.93;100.00
10840;BME280;5473;42.706;23.328;2022-09-12T00:13:36;-14565.91;;;-142.93;100.00
10840;BME280;5473;42.706;23.328;2022-09-12T00:16:03;-14565.91;;;-142.93;100.00
10840;BME280;5473;42.706;23.328;2022-09-12T00:18:31;-14565.91;;;-142.93;100.00
10840;BME280;5473;42.706;23.328;2022-09-12T00:21:01;-14565.91;;;-142.93;100.00
10840;BME280;5473;42.706;23.328;2022-09-12T00:23:30;-14565.91;;;-142.93;100.00
10840;BME280;5473;42.706;23.328;2022-09-12T00:25:58;-14565.91;;;-142.93;100.00
10840;BME280;5473;42.706;23.328;2022-09-12T00:28:25;-14565.91;;;-142.93;100.00
10840;BME280;5473;42.706;23.328;2022-09-12T00:30:52;-14565.91;;;-142.93;100.00
10840;BME280;5473;42.706;23.328;2022-09-12T00:33:19;-14565.91;;;-142.93;100.00
10840;BME280;5473;42.706;23.328;2022-09-12T00:35:47;-14565.91;;;-142.93;100.00
10840;BME280;5473;42.706;23.328;2022-09-12T00:38:15;-14565.91;;;-142.93;100.00
10840;BME280;5473;42.706;23.328;2022-09-12T00:40:42;-14565.91;;;-142.93;100.00
10840;BME280;5473;42.706;23.328;2022-09-12T00:43:12;-14565.91;;;-142.93;100.00
10840;BME280;5473;42.706;23.328;2022-09-12T00:45:40;-14565.91;;;-142.93;100.00
10840;BME280;5473;42.706;23.328;2022-09-12T00:48:17;-14565.91;;;-142.93;100.00
10840;BME280;5473;42.706;23.328;2022-09-12T00:50:47;-14565.91;;;-142.93;100.00
10840;BME280;5473;42.706;23.328;2022-09-12T00:53:14;-14565.91;;;-142.93;100.00
10840;BME280;5473;42.706;23.328;2022-09-12T00:55:44;-14565.91;;;-142.93;100.00
10840;BME280;5473;42.706;23.328;2022-09-12T00:58:18;-14565.91;;;-142.93;100.00
10840;BME280;5473;42.706;23.328;2022-09-12T01:00:46;-14565.91;;;-142.93;100.00
10840;BME280;5473;42.706;23.328;2022-09-12T01:03:15;-14565.91;;;-142.93;100.00
10840;BME280;5473;42.706;23.328;2022-09-12T01:05:55;-14565.91;;;-142.93;100.00
10840;BME280;5473;42.706;23.328;2022-09-12T01:08:25;-14565.91;;;-142.93;100.00
10840;BME280;5473;42.706;23.328;2022-09-12T01:10:52;-14565.91;;;-142.93;100.00
10840;BME280;5473;42.706;23.328;2022-09-12T01:13:22;-14565.91;;;-142.93;100.00
10840;BME280;5473;42.706;23.328;2022-09-12T01:15:49;-14565.91;;;-142.93;100.00
10840;BME280;5473;42.706;23.328;2022-09-12T01:18:20;-14565.91;;;-142.93;100.00
10840;BME280;5473;42.706;23.328;2022-09-12T01:21:07;-14565.91;;;-142.93;100.00
10840;BME280;5473;42.706;23.328;2022-09-12T01:24:11;-14565.91;;;-142.93;100.00
10840;BME280;5473;42.706;23.328;2022-09-12T01:35:47;-14565.91;;;-142.93;100.00
10840;BME280;5473;42.706;23.328;2022-09-12T01:38:24;-14565.91;;;-142.93;100.00
10840;BME280;5473;42.706;23.328;2022-09-12T01:41:00;-14565.91;;;-142.93;100.00
10840;BME280;5473;42.706;23.328;2022-09-12T01:43:34;-14565.91;;;-142.93;100.00
10840;BME280;5473;42.706;23.328;2022-09-12T01:46:07;-14565.91;;;-142.93;100.00
10840;BME280;5473;42.706;23.328;2022-09-12T01:48:43;-14565.91;;;-142.93;100.00
10840;BME280;5473;42.706;23.328;2022-09-12T01:51:17;-14565.91;;;-142.93;100.00
10840;BME280;5473;42.706;23.328;2022-09-12T01:53:49;-14565.91;;;-142.93;100.00
10840;BME280;5473;42.706;23.328;2022-09-12T01:56:21;-14565.91;;;-142.93;100.00
10840;BME280;5473;42.706;23.328;2022-09-12T01:58:54;-14565.91;;;-142.93;100.00
10840;BME280;5473;42.706;23.328;2022-09-12T02:01:26;-14565.91;;;-142.93;100.00
10840;BME280;5473;42.706;23.328;2022-09-12T02:04:00;-14565.91;;;-142.93;100.00
10840;BME280;5473;42.706;23.328;2022-09-12T02:06:32;-14565.91;;;-142.93;100.00
10840;BME280;5473;42.706;23.328;2022-09-12T02:09:05;-14565.91;;;-142.93;100.00
10840;BME280;5473;42.706;23.328;2022-09-12T02:11:39;-14565.91;;;-142.93;100.00
10840;BME280;5473;42.706;23.328;2022-09-12T02:14:09;-14565.91;;;-142.93;100.00
10840;BME280;5473;42.706;23.328;2022-09-12T02:16:40;-14565.91;;;-142.93;100.00
10840;BME280;5473;42.706;23.328;2022-09-12T02:19:11;-14565.91;;;-142.93;100.00
10840;BME280;5473;42.706;23.328;2022-09-12T02:21:46;-14565.91;;;-142.93;100.00
10840;BME280;5473;42.706;23.328;2022-09-12T02:24:16;-14565.91;;;-142.93;100.00
10840;BME280;5473;42.706;23.328;2022-09-12T02:26:48;-14565.91;;;-142.93;100.00
10840;BME280;5473;42.706;23.328;2022-09-12T02:29:16;-14565.91;;;-142.93;100.00
10840;BME280;5473;42.706;23.328;2022-09-12T02:31:45;-14565.91;;;-142.93;100.00
10840;BME280;5473;42.706;23.328;2022-09-12T02:34:26;-14565.91;;;-142.93;100.00
10840;BME280;5473;42.706;23.328;2022-09-12T02:37:04;-14565.91;;;-142.93;100.00
10840;BME280;5473;42.706;23.328;2022-09-12T02:39:33;-14565.91;;;-142.93;100.00
10840;BME280;5473;42.706;23.328;2022-09-12T02:42:01;-14565.91;;;-142.93;100.00
10840;BME280;5473;42.706;23.328;2022-09-12T02:44:30;-14565.91;;;-142.93;100.00
10840;BME280;5473;42.706;23.328;2022-09-12T02:47:00;-14565.91;;;-142.93;100.00
10840;BME280;5473;42.706;23.328;2022-09-12T02:49:30;-14565.91;;;-142.93;100.00
10840;BME280;5473;42.706;23.328;2022-09-12T02:51:58;-14565.91;;;-142.93;100.00
10840;BME280;5473;42.706;23.328;2022-09-12T02:54:25;-14565.91;;;-142.93;100.00
10840;BME280;5473;42.706;23.328;2022-09-12T02:56:53;-14565.91;;;-142.93;100.00
10840;BME280;5473;42.706;23.328;2022-09-12T02:59:21;-14565.91;;;-142.93;100.00
10840;BME280;5473;42.706;23.328;2022-09-12T03:02:03;-14565.91;;;-142.93;100.00
10840;BME280;5473;42.706;23.328;2022-09-12T03:04:51;-14565.91;;;-142.93;100.00
10840;BME280;5473;42.706;23.328;2022-09-12T03:07:30;-14565.91;;;-142.93;100.00
10840;BME280;5473;42.706;23.328;2022-09-12T03:10:06;-14565.91;;;-142.93;100.00
10840;BME280;5473;42.706;23.328;2022-09-12T03:12:45;-14565.91;;;-142.93;100.00
10840;BME280;5473;42.706;23.328;2022-09-12T03:15:25;-14565.91;;;-142.93;100.00
10840;BME280;5473;42.706;23.328;2022-09-12T03:18:03;-14565.91;;;-142.93;100.00
10840;BME280;5473;42.706;23.328;2022-09-12T03:20:44;-14565.91;;;-142.93;100.00
10840;BME280;5473;42.706;23.328;2022-09-12T03:23:24;-14565.91;;;-142.93;100.00
10840;BME280;5473;42.706;23.328;2022-09-12T03:25:56;-14565.91;;;-142.93;100.00
10840;BME280;5473;42.706;23.328;2022-09-12T03:28:26;-14565.91;;;-142.93;100.00
10840;BME280;5473;42.706;23.328;2022-09-12T03:30:54;-14565.91;;;-142.93;100.00
10840;BME280;5473;42.706;23.328;2022-09-12T03:33:22;-14565.91;;;-142.93;100.00
10840;BME280;5473;42.706;23.328;2022-09-12T03:35:51;-14565.91;;;-142.93;100.00
10840;BME280;5473;42.706;23.328;2022-09-12T03:38:18;-14565.91;;;-142.93;100.00
10840;BME280;5473;42.706;23.328;2022-09-12T03:40:45;-14565.91;;;-142.93;100.00
10840;BME280;5473;42.706;23.328;2022-09-12T03:43:14;-14565.91;;;-142.93;100.00
10840;BME280;5473;42.706;23.328;2022-09-12T03:45:41;-14565.91;;;-142.93;100.00
10840;BME280;5473;42.706;23.328;2022-09-12T03:48:08;-14565.91;;;-142.93;100.00
10840;BME280;5473;42.706;23.328;2022-09-12T03:50:35;-14565.91;;;-142.93;100.00
10840;BME280;5473;42.706;23.328;2022-09-12T03:53:04;-14565.91;;;-142.93;100.00
10840;BME280;5473;42.706;23.328;2022-09-12T03:55:30;-14565.91;;;-142.93;100.00
10840;BME280;5473;42.706;23.328;2022-09-12T03:57:57;-14565.91;;;-142.93;100.00
10840;BME280;5473;42.706;23.328;2022-09-12T04:00:24;-14565.91;;;-142.93;100.00
10840;BME280;5473;42.706;23.328;2022-09-12T04:02:54;-14565.91;;;-142.93;100.00
10840;BME280;5473;42.706;23.328;2022-09-12T04:05:22;-14565.91;;;-142.93;100.00
10840;BME280;5473;42.706;23.328;2022-09-12T04:07:49;-14565.91;;;-142.93;100.00
10840;BME280;5473;42.706;23.328;2022-09-12T04:10:17;-14565.91;;;-142.93;100.00
10840;BME280;5473;42.706;23.328;2022-09-12T04:12:44;-14565.91;;;-142.93;100.00
10840;BME280;5473;42.706;23.328;2022-09-12T04:15:10;-14565.91;;;-142.93;100.00
10840;BME280;5473;42.706;23.328;2022-09-12T04:17:37;-14565.91;;;-142.93;100.00
10840;BME280;5473;42.706;23.328;2022-09-12T04:20:05;-14565.91;;;-142.93;100.00
10840;BME280;5473;42.706;23.328;2022-09-12T04:22:32;-14565.91;;;-142.93;100.00
10840;BME280;5473;42.706;23.328;2022-09-12T04:24:58;-14565.91;;;-142.93;100.00
10840;BME280;5473;42.706;23.328;2022-09-12T04:27:27;-14565.91;;;-142.93;100.00
10840;BME280;5473;42.706;23.328;2022-09-12T04:29:54;-14565.91;;;-142.93;100.00
10840;BME280;5473;42.706;23.328;2022-09-12T04:32:21;-14565.91;;;-142.93;100.00
10840;BME280;5473;42.706;23.328;2022-09-12T04:34:48;-14565.91;;;-142.93;100.00
10840;BME280;5473;42.706;23.328;2022-09-12T04:37:16;-14565.91;;;-142.93;100.00
10840;BME280;5473;42.706;23.328;2022-09-12T04:39:43;-14565.91;;;-142.93;100.00
10840;BME280;5473;42.706;23.328;2022-09-12T04:42:10;-14565.91;;;-142.93;100.00
10840;BME280;5473;42.706;23.328;2022-09-12T04:44:38;-14565.91;;;-142.93;100.00
10840;BME280;5473;42.706;23.328;2022-09-12T04:47:05;-14565.91;;;-142.93;100.00
10840;BME280;5473;42.706;23.328;2022-09-12T04:49:32;-14565.91;;;-142.93;100.00
10840;BME280;5473;42.706;23.328;2022-09-12T04:51:58;-14565.91;;;-142.93;100.00
10840;BME280;5473;42.706;23.328;2022-09-12T04:54:25;-14565.91;;;-142.93;100.00
10840;BME280;5473;42.706;23.328;2022-09-12T04:56:52;-14565.91;;;-142.93;100.00
10840;BME280;5473;42.706;23.328;2022-09-12T04:59:20;-14565.91;;;-142.93;100.00
10840;BME280;5473;42.706;23.328;2022-09-12T05:01:48;-14565.91;;;-142.93;100.00
10840;BME280;5473;42.706;23.328;2022-09-12T05:04:16;-14565.91;;;-142.93;100.00
10840;BME280;5473;42.706;23.328;2022-09-12T05:06:43;-14565.91;;;-142.93;100.00
10840;BME280;5473;42.706;23.328;2022-09-12T05:09:12;-14565.91;;;-142.93;100.00
10840;BME280;5473;42.706;23.328;2022-09-12T05:11:41;-14565.91;;;-142.93;100.00
10840;BME280;5473;42.706;23.328;2022-09-12T05:14:09;-14565.91;;;-142.93;100.00
10840;BME280;5473;42.706;23.328;2022-09-12T05:16:36;-14565.91;;;-142.93;100.00
10840;BME280;5473;42.706;23.328;2022-09-12T05:19:04;-14565.91;;;-142.93;100.00
10840;BME280;5473;42.706;23.328;2022-09-12T05:21:30;-14565.91;;;-142.93;100.00
10840;BME280;5473;42.706;23.328;2022-09-12T05:23:57;-14565.91;;;-142.93;100.00
10840;BME280;5473;42.706;23.328;2022-09-12T05:26:25;-14565.91;;;-142.93;100.00
10840;BME280;5473;42.706;23.328;2022-09-12T05:28:52;-14565.91;;;-142.93;100.00
10840;BME280;5473;42.706;23.328;2022-09-12T05:31:21;-14062.97;;;-142.93;100.00
10840;BME280;5473;42.706;23.328;2022-09-12T05:33:50;-12056.34;;;-142.93;100.00
10840;BME280;5473;42.706;23.328;2022-09-12T05:36:20;-11805.41;;;-142.93;100.00
10840;BME280;5473;42.706;23.328;2022-09-12T05:38:48;-9295.19;;;-142.93;100.00
10840;BME280;5473;42.706;23.328;2022-09-12T05:41:16;-5274.78;;;-142.93;99.67
10840;BME280;5473;42.706;23.328;2022-09-12T05:43:45;-745.94;;;-142.93;92.61
10840;BME280;5473;42.706;23.328;2022-09-12T05:46:13;5554.56;;;-142.93;89.38
10840;BME280;5473;42.706;23.328;2022-09-12T05:48:42;13383.94;;;-142.93;82.89
10840;BME280;5473;42.706;23.328;2022-09-12T05:51:11;26562.78;;;-142.93;78.75
10840;BME280;5473;42.706;23.328;2022-09-12T05:53:40;32726.72;;;-142.93;75.65
10840;BME280;5473;42.706;23.328;2022-09-12T05:56:09;33901.25;;;-142.93;75.45
10840;BME280;5473;42.706;23.328;2022-09-12T05:58:38;30416.66;;;-142.93;78.41
10840;BME280;5473;42.706;23.328;2022-09-12T06:01:07;29086.53;;;-142.93;79.06
10840;BME280;5473;42.706;23.328;2022-09-12T06:03:38;30841.59;;;-142.93;78.04
10840;BME280;5473;42.706;23.328;2022-09-12T06:06:06;34314.72;;;-142.93;75.15
10840;BME280;5473;42.706;23.328;2022-09-12T06:08:34;34426.03;;;-142.93;75.20
10840;BME280;5473;42.706;23.328;2022-09-12T06:11:04;32961.22;;;-142.93;76.84
10840;BME280;5473;42.706;23.328;2022-09-12T06:13:32;34923.09;;;-142.93;73.85
10840;BME280;5473;42.706;23.328;2022-09-12T06:16:02;36022.78;;;-142.93;68.94
10840;BME280;5473;42.706;23.328;2022-09-12T06:18:30;36372.88;;;-142.93;64.61
10840;BME280;5473;42.706;23.328;2022-09-12T06:20:57;36532.00;;;-142.93;63.15
10840;BME280;5473;42.706;23.328;2022-09-12T06:23:24;36547.94;;;-142.93;64.84
10840;BME280;5473;42.706;23.328;2022-09-12T06:25:51;36410.66;;;-142.93;65.20
10840;BME280;5473;42.706;23.328;2022-09-12T06:28:20;36514.09;;;-142.93;63.64
10840;BME280;5473;42.706;23.328;2022-09-12T06:30:47;36645.41;;;-142.93;61.37
10840;BME280;5473;42.706;23.328;2022-09-12T06:33:14;36625.50;;;-142.93;62.65
10840;BME280;5473;42.706;23.328;2022-09-12T06:35:41;36486.25;;;-142.93;63.32
10840;BME280;5473;42.706;23.328;2022-09-12T06:38:08;36555.88;;;-142.93;62.23
10840;BME280;5473;42.706;23.328;2022-09-12T06:40:40;36488.25;;;-142.93;62.42
10840;BME280;5473;42.706;23.328;2022-09-12T06:43:09;36510.13;;;-142.93;61.01
10840;BME280;5473;42.706;23.328;2022-09-12T06:45:38;36619.53;;;-142.93;60.82
10840;BME280;5473;42.706;23.328;2022-09-12T06:48:05;36571.78;;;-142.93;61.92
10840;BME280;5473;42.706;23.328;2022-09-12T06:50:31;36532.00;;;-142.93;61.47
10840;BME280;5473;42.706;23.328;2022-09-12T06:52:58;36573.78;;;-142.93;59.47
10840;BME280;5473;42.706;23.328;2022-09-12T06:55:25;36693.16;;;-142.93;57.28
10840;BME280;5473;42.706;23.328;2022-09-12T06:57:53;36661.31;;;-142.93;54.94
10840;BME280;5473;42.706;23.328;2022-09-12T07:00:20;36557.88;;;-142.93;53.22
10840;BME280;5473;42.706;23.328;2022-09-12T07:02:52;36645.41;;;-142.93;50.89
10840;BME280;5473;42.706;23.328;2022-09-12T07:05:19;36655.34;;;-142.93;49.30
10840;BME280;5473;42.706;23.328;2022-09-12T07:07:46;36687.19;;;-142.93;50.07
10840;BME280;5473;42.706;23.328;2022-09-12T07:10:13;36758.78;;;-142.93;50.41
10840;BME280;5473;42.706;23.328;2022-09-12T07:12:40;36740.88;;;-142.93;50.38
10840;BME280;5473;42.706;23.328;2022-09-12T07:15:08;36748.84;;;-142.93;49.17
10840;BME280;5473;42.706;23.328;2022-09-12T07:17:35;36659.31;;;-142.93;47.85
10840;BME280;5473;42.706;23.328;2022-09-12T07:20:04;36681.22;;;-142.93;46.30
10840;BME280;5473;42.706;23.328;2022-09-12T07:22:31;36569.81;;;-142.93;45.66
10840;BME280;5473;42.706;23.328;2022-09-12T07:24:58;36571.78;;;-142.93;45.06
10840;BME280;5473;42.706;23.328;2022-09-12T07:27:24;36665.28;;;-142.93;44.29
10840;BME280;5473;42.706;23.328;2022-09-12T07:29:51;36766.75;;;-142.93;44.88
10840;BME280;5473;42.706;23.328;2022-09-12T07:32:18;36832.41;;;-142.93;45.08
10840;BME280;5473;42.706;23.328;2022-09-12T07:34:45;36913.97;;;-142.93;45.43
10840;BME280;5473;42.706;23.328;2022-09-12T07:37:13;36878.16;;;-142.93;45.47
10840;BME280;5473;42.706;23.328;2022-09-12T07:39:40;36838.38;;;-142.93;44.67
10840;BME280;5473;42.706;23.328;2022-09-12T07:42:06;37126.84;;;-142.93;47.15
10840;BME280;5473;42.706;23.328;2022-09-12T07:44:33;37009.47;;;-142.93;47.62
10840;BME280;5473;42.706;23.328;2022-09-12T07:47:00;36864.22;;;-142.93;46.14
10840;BME280;5473;42.706;23.328;2022-09-12T07:49:27;36778.69;;;-142.93;44.12
10840;BME280;5473;42.706;23.328;2022-09-12T07:51:55;36792.63;;;-142.93;42.22
10840;BME280;5473;42.706;23.328;2022-09-12T07:54:23;36746.84;;;-142.93;41.41
10840;BME280;5473;42.706;23.328;2022-09-12T07:56:50;36675.25;;;-142.93;41.13
10840;BME280;5473;42.706;23.328;2022-09-12T07:59:17;36742.88;;;-142.93;41.06
10840;BME280;5473;42.706;23.328;2022-09-12T08:01:44;36955.75;;;-142.93;43.20
10840;BME280;5473;42.706;23.328;2022-09-12T08:04:11;36860.25;;;-142.93;42.70
10840;BME280;5473;42.706;23.328;2022-09-12T08:06:38;36892.09;;;-142.93;42.17
10840;BME280;5473;42.706;23.328;2022-09-12T08:09:05;36878.16;;;-142.93;41.94
10840;BME280;5473;42.706;23.328;2022-09-12T08:11:34;37085.06;;;-142.93;44.07
10840;BME280;5473;42.706;23.328;2022-09-12T08:14:00;37114.91;;;-142.93;44.37
10840;BME280;5473;42.706;23.328;2022-09-12T08:16:30;36894.06;;;-142.93;42.57
10840;BME280;5473;42.706;23.328;2022-09-12T08:19:00;36746.84;;;-142.93;41.66
10840;BME280;5473;42.706;23.328;2022-09-12T08:21:29;36625.50;;;-142.93;40.66
10840;BME280;5473;42.706;23.328;2022-09-12T08:23:57;36530.03;;;-142.93;39.79
10840;BME280;5473;42.706;23.328;2022-09-12T08:26:25;36416.63;;;-142.93;38.81
10840;BME280;5473;42.706;23.328;2022-09-12T08:28:53;36649.38;;;-142.93;39.65
10840;BME280;5473;42.706;23.328;2022-09-12T08:31:22;36927.91;;;-142.93;41.71
10840;BME280;5473;42.706;23.328;2022-09-12T08:33:49;37202.47;;;-142.93;43.82
10840;BME280;5473;42.706;23.328;2022-09-12T08:36:19;37252.19;;;-142.93;44.75
10840;BME280;5473;42.706;23.328;2022-09-12T08:38:47;37274.09;;;-142.93;45.66
10840;BME280;5473;42.706;23.328;2022-09-12T08:41:22;37258.16;;;-142.93;45.98
10840;BME280;5473;42.706;23.328;2022-09-12T08:44:02;37162.66;;;-142.93;45.71
10840;BME280;5473;42.706;23.328;2022-09-12T08:46:36;37091.03;;;-142.93;44.86
10840;BME280;5473;42.706;23.328;2022-09-12T08:49:08;36993.56;;;-142.93;42.63
10840;BME280;5473;42.706;23.328;2022-09-12T08:51:36;37009.47;;;-142.93;42.68
10840;BME280;5473;42.706;23.328;2022-09-12T08:54:12;36929.88;;;-142.93;41.86
10840;BME280;5473;42.706;23.328;2022-09-12T08:56:42;37011.47;;;-142.93;41.69
10840;BME280;5473;42.706;23.328;2022-09-12T08:59:12;37101.00;;;-142.93;42.00
10840;BME280;5473;42.706;23.328;2022-09-12T09:01:42;37101.00;;;-142.93;42.93
10840;BME280;5473;42.706;23.328;2022-09-12T09:04:24;37081.09;;;-142.93;42.16
10840;BME280;5473;42.706;23.328;2022-09-12T09:07:04;36908.00;;;-142.93;41.11
10840;BME280;5473;42.706;23.328;2022-09-12T09:09:47;36798.59;;;-142.93;39.27
10840;BME280;5473;42.706;23.328;2022-09-12T09:12:27;36818.47;;;-142.93;39.25
10840;BME280;5473;42.706;23.328;2022-09-12T09:15:13;36854.28;;;-142.93;39.77
10840;BME280;5473;42.706;23.328;2022-09-12T09:17:49;36657.34;;;-142.93;38.23
10840;BME280;5473;42.706;23.328;2022-09-12T09:20:24;36589.69;;;-142.93;37.76
10840;BME280;5473;42.706;23.328;2022-09-12T09:22:56;36490.22;;;-142.93;36.97
10840;BME280;5473;42.706;23.328;2022-09-12T09:25:34;36454.44;;;-142.93;36.57
10840;BME280;5473;42.706;23.328;2022-09-12T09:28:05;36406.69;;;-142.93;36.33
10840;BME280;5473;42.706;23.328;2022-09-12T09:30:44;36301.25;;;-142.93;35.72
10840;BME280;5473;42.706;23.328;2022-09-12T09:33:19;36295.28;;;-142.93;35.87
10840;BME280;5473;42.706;23.328;2022-09-12T09:35:52;36325.13;;;-142.93;35.08
10840;BME280;5473;42.706;23.328;2022-09-12T09:38:32;36472.34;;;-142.93;35.62
10840;BME280;5473;42.706;23.328;2022-09-12T09:43:51;36480.28;;;-142.93;36.20
10840;BME280;5473;42.706;23.328;2022-09-12T09:46:19;36464.38;;;-142.93;36.19
10840;BME280;5473;42.706;23.328;2022-09-12T09:48:48;36597.66;;;-142.93;36.62
10840;BME280;5473;42.706;23.328;2022-09-12T09:51:24;36778.69;;;-142.93;37.06
10840;BME280;5473;42.706;23.328;2022-09-12T09:53:53;36665.28;;;-142.93;36.90
10840;BME280;5473;42.706;23.328;2022-09-12T09:56:27;36617.53;;;-142.93;36.81
10840;BME280;5473;42.706;23.328;2022-09-12T09:58:54;36595.66;;;-142.93;36.15
10840;BME280;5473;42.706;23.328;2022-09-12T10:01:22;36609.59;;;-142.93;35.40
10840;BME280;5473;42.706;23.328;2022-09-12T10:03:51;36713.03;;;-142.93;36.65
10840;BME280;5473;42.706;23.328;2022-09-12T10:06:24;36669.28;;;-142.93;37.03
10840;BME280;5473;42.706;23.328;2022-09-12T10:09:03;36611.59;;;-142.93;35.81
10840;BME280;5473;42.706;23.328;2022-09-12T10:11:32;36800.56;;;-142.93;36.10
10840;BME280;5473;42.706;23.328;2022-09-12T10:13:59;36728.94;;;-142.93;36.46
10840;BME280;5473;42.706;23.328;2022-09-12T10:16:28;36722.97;;;-142.93;35.33
10840;BME280;5473;42.706;23.328;2022-09-12T10:18:57;36719.00;;;-142.93;35.69
10840;BME280;5473;42.706;23.328;2022-09-12T10:21:28;36703.09;;;-142.93;36.13
10840;BME280;5473;42.706;23.328;2022-09-12T10:24:21;36478.31;;;-142.93;35.25
10840;BME280;5473;42.706;23.328;2022-09-12T10:26:52;36663.31;;;-142.93;36.30
10840;BME280;5473;42.706;23.328;2022-09-12T10:29:23;36528.03;;;-142.93;35.92
10840;BME280;5473;42.706;23.328;2022-09-12T10:31:54;36506.16;;;-142.93;35.79
10840;BME280;5473;42.706;23.328;2022-09-12T10:34:25;36269.44;;;-142.93;34.45
10840;BME280;5473;42.706;23.328;2022-09-12T10:37:00;36148.09;;;-142.93;33.67
10840;BME280;5473;42.706;23.328;2022-09-12T10:39:27;36343.03;;;-142.93;33.36
10840;BME280;5473;42.706;23.328;2022-09-12T10:41:55;36539.97;;;-142.93;33.40
10840;BME280;5473;42.706;23.328;2022-09-12T10:44:27;36486.25;;;-142.93;33.44
10840;BME280;5473;42.706;23.328;2022-09-12T10:46:58;36518.09;;;-142.93;33.50
10840;BME280;5473;42.706;23.328;2022-09-12T10:49:28;36766.75;;;-142.93;33.95
10840;BME280;5473;42.706;23.328;2022-09-12T10:51:57;37023.38;;;-142.93;35.11
10840;BME280;5473;42.706;23.328;2022-09-12T10:54:42;36808.53;;;-142.93;34.75
10840;BME280;5473;42.706;23.328;2022-09-12T10:57:41;36784.66;;;-142.93;35.04
10840;BME280;5473;42.706;23.328;2022-09-12T11:00:16;36838.38;;;-142.93;35.02
10840;BME280;5473;42.706;23.328;2022-09-12T11:02:59;37128.84;;;-142.93;36.49
10840;BME280;5473;42.706;23.328;2022-09-12T11:05:45;37118.91;;;-142.93;37.02
10840;BME280;5473;42.706;23.328;2022-09-12T11:08:25;37041.28;;;-142.93;36.44
10840;BME280;5473;42.706;23.328;2022-09-12T11:11:02;36812.50;;;-142.93;36.17
10840;BME280;5473;42.706;23.328;2022-09-12T11:13:52;36768.75;;;-142.93;35.57
10840;BME280;5473;42.706;23.328;2022-09-12T11:16:26;36810.50;;;-142.93;35.72
10840;BME280;5473;42.706;23.328;2022-09-12T11:22:04;37095.00;;;-142.93;36.42
10840;BME280;5473;42.706;23.328;2022-09-12T11:24:42;37290.00;;;-142.93;37.46
10840;BME280;5473;42.706;23.328;2022-09-12T11:27:21;37467.09;;;-142.93;39.62
10840;BME280;5473;42.706;23.328;2022-09-12T11:29:57;37508.88;;;-142.93;41.17
10840;BME280;5473;42.706;23.328;2022-09-12T11:35:24;37608.38;;;-142.93;42.74
10840;BME280;5473;42.706;23.328;2022-09-12T11:38:25;37463.13;;;-142.93;41.24
10840;BME280;5473;42.706;23.328;2022-09-12T11:40:58;37266.13;;;-142.93;40.13
10840;BME280;5473;42.706;23.328;2022-09-12T11:43:32;37019.41;;;-142.93;37.80
10840;BME280;5473;42.706;23.328;2022-09-12T11:46:08;36814.50;;;-142.93;36.13
10840;BME280;5473;42.706;23.328;2022-09-12T11:48:43;37039.31;;;-142.93;35.98
10840;BME280;5473;42.706;23.328;2022-09-12T11:51:17;37124.84;;;-142.93;36.92
10840;BME280;5473;42.706;23.328;2022-09-12T11:54:00;37140.78;;;-142.93;37.09
10840;BME280;5473;42.706;23.328;2022-09-12T11:56:28;37136.81;;;-142.93;37.32
10840;BME280;5473;42.706;23.328;2022-09-12T11:58:58;37110.94;;;-142.93;37.28
10840;BME280;5473;42.706;23.328;2022-09-12T12:01:31;37037.31;;;-142.93;36.62
10840;BME280;5473;42.706;23.328;2022-09-12T12:04:07;36828.41;;;-142.93;35.72
10840;BME280;5473;42.706;23.328;2022-09-12T12:06:46;36900.03;;;-142.93;35.56
10840;BME280;5473;42.706;23.328;2022-09-12T12:09:14;36991.56;;;-142.93;35.25
10840;BME280;5473;42.706;23.328;2022-09-12T12:11:44;36908.00;;;-142.93;34.76
10840;BME280;5473;42.706;23.328;2022-09-12T12:14:15;37041.28;;;-142.93;35.54
10840;BME280;5473;42.706;23.328;2022-09-12T12:16:44;37232.31;;;-142.93;36.92
10840;BME280;5473;42.706;23.328;2022-09-12T12:19:27;37218.38;;;-142.93;35.99
10840;BME280;5473;42.706;23.328;2022-09-12T12:22:05;37224.34;;;-142.93;36.12
10840;BME280;5473;42.706;23.328;2022-09-12T12:24:32;37186.53;;;-142.93;36.03
10840;BME280;5473;42.706;23.328;2022-09-12T12:27:00;37240.25;;;-142.93;36.18
10840;BME280;5473;42.706;23.328;2022-09-12T12:29:45;37124.84;;;-142.93;36.35
10840;BME280;5473;42.706;23.328;2022-09-12T12:32:25;37104.97;;;-142.93;36.58
10840;BME280;5473;42.706;23.328;2022-09-12T12:37:58;37039.31;;;-142.93;36.85
10840;BME280;5473;42.706;23.328;2022-09-12T12:40:27;37120.88;;;-142.93;36.39
10840;BME280;5473;42.706;23.328;2022-09-12T12:43:13;37192.50;;;-142.93;36.54
10840;BME280;5473;42.706;23.328;2022-09-12T12:46:08;37126.84;;;-142.93;37.01
10840;BME280;5473;42.706;23.328;2022-09-12T12:48:53;37164.66;;;-142.93;36.89
10840;BME280;5473;42.706;23.328;2022-09-12T12:51:29;37451.16;;;-142.93;38.34
10840;BME280;5473;42.706;23.328;2022-09-12T12:54:00;37642.19;;;-142.93;40.36
10840;BME280;5473;42.706;23.328;2022-09-12T12:56:33;37624.28;;;-142.93;42.01
10840;BME280;5473;42.706;23.328;2022-09-12T12:59:02;37628.28;;;-142.93;43.08
10840;BME280;5473;42.706;23.328;2022-09-12T13:01:31;37608.38;;;-142.93;44.22
10840;BME280;5473;42.706;23.328;2022-09-12T13:04:11;37646.19;;;-142.93;44.90
10840;BME280;5473;42.706;23.328;2022-09-12T13:06:41;37652.16;;;-142.93;45.07
10840;BME280;5473;42.706;23.328;2022-09-12T13:09:23;37674.03;;;-142.93;45.68
10840;BME280;5473;42.706;23.328;2022-09-12T13:11:59;37602.41;;;-142.93;46.51